Time;durP1;ratioP1;P1;durP2;ratioP2;P2;SDS_P1;SDS_P2;PMS_P1;PMS_P2;Temp;Humidity;BMP_temperature;BMP_pressure;BME280_temperature;BME280_humidity;BME280_pressure;Samples;Min_cycle;Max_cycle;Signal;HPM_P1;HPM_P2
2021/05/28 00:02:52;;;;;;;5.93;4.57;;;;;;;13.04;66.19;98349.34;8353911;28;20456;-84
2021/05/28 00:06:54;;;;;;;5.53;4.60;;;;;;;13.09;65.84;98349.09;8354329;28;20204;-85
2021/05/28 00:10:58;;;;;;;5.17;4.67;;;;;;;13.16;65.83;98349.66;8354535;28;20531;-85
2021/05/28 00:15:00;;;;;;;5.00;4.60;;;;;;;13.19;65.51;98352.09;8355028;28;20491;-85
2021/05/28 00:19:03;;;;;;;6.10;5.00;;;;;;;13.05;65.83;98351.00;8355310;28;20215;-85
2021/05/28 00:23:05;;;;;;;5.47;4.50;;;;;;;13.15;65.47;98354.00;8357555;28;20228;-84
2021/05/28 00:27:09;;;;;;;5.37;4.67;;;;;;;13.17;65.25;98354.78;8354368;28;20204;-84
2021/05/28 00:31:11;;;;;;;4.67;4.20;;;;;;;13.21;65.42;98361.53;8354049;28;20204;-85
2021/05/28 00:35:14;;;;;;;5.03;4.53;;;;;;;13.18;65.56;98360.84;8353699;28;20480;-85
2021/05/28 00:39:16;;;;;;;5.13;4.63;;;;;;;13.10;65.70;98361.22;8353311;28;20503;-84
2021/05/28 00:43:19;;;;;;;5.53;4.90;;;;;;;13.08;65.79;98363.03;8353125;28;20232;-86
2021/05/28 00:47:22;;;;;;;5.23;4.80;;;;;;;13.08;66.11;98357.84;8353329;28;20201;-86
2021/05/28 00:51:24;;;;;;;5.43;4.93;;;;;;;13.05;66.07;98358.81;8353153;28;20481;-86
2021/05/28 00:55:27;;;;;;;5.90;5.40;;;;;;;13.03;66.15;98359.81;8353108;28;20207;-84
2021/05/28 00:59:31;;;;;;;6.03;5.53;;;;;;;13.00;65.98;98357.34;8352773;28;20211;-87
2021/05/28 01:03:33;;;;;;;6.73;5.40;;;;;;;13.08;65.95;98363.88;8352848;28;20244;-87
2021/05/28 01:07:36;;;;;;;6.90;6.20;;;;;;;13.06;65.97;98352.72;8352632;28;20230;-86
2021/05/28 01:11:39;;;;;;;6.30;5.67;;;;;;;13.08;66.03;98356.06;8352323;28;20220;-86
2021/05/28 01:15:42;;;;;;;7.07;5.73;;;;;;;13.01;66.20;98346.03;8352166;28;20205;-86
2021/05/28 01:19:44;;;;;;;5.93;5.23;;;;;;;13.07;65.87;98345.75;8352330;28;20207;-83
2021/05/28 01:23:48;;;;;;;6.73;6.07;;;;;;;12.99;65.74;98353.91;8352027;28;20488;-84
2021/05/28 01:27:50;;;;;;;6.30;5.70;;;;;;;12.95;65.90;98357.59;8352080;28;20385;-83
2021/05/28 01:31:53;;;;;;;7.10;5.90;;;;;;;12.94;65.81;98360.25;8351692;28;20204;-84
2021/05/28 01:35:58;;;;;;;6.27;5.67;;;;;;;12.86;65.71;98353.66;8351656;28;20204;-85
2021/05/28 01:40:02;;;;;;;9.27;6.03;;;;;;;12.85;66.08;98364.13;8351615;28;20193;-85
2021/05/28 01:44:08;;;;;;;6.20;5.60;;;;;;;12.88;66.00;98363.97;8351568;28;20251;-85
2021/05/28 01:48:11;;;;;;;7.20;6.43;;;;;;;12.78;66.27;98362.75;8350822;28;20208;-83
2021/05/28 01:52:13;;;;;;;7.03;6.23;;;;;;;12.91;65.64;98371.66;8350866;28;20211;-83
2021/05/28 01:56:16;;;;;;;7.67;6.87;;;;;;;12.77;66.28;98364.47;8350967;28;20236;-83
2021/05/28 02:00:19;;;;;;;7.77;7.07;;;;;;;12.71;66.71;98367.38;8350505;28;20207;-83
2021/05/28 02:04:23;;;;;;;8.50;6.87;;;;;;;12.78;66.17;98366.19;8350525;28;20421;-83
2021/05/28 02:08:26;;;;;;;8.57;7.27;;;;;;;12.81;65.88;98355.66;8350494;28;20388;-83
2021/05/28 02:12:29;;;;;;;7.77;6.97;;;;;;;12.88;65.54;98374.38;8350115;28;20205;-83
2021/05/28 02:16:32;;;;;;;7.60;6.90;;;;;;;12.89;65.49;98373.47;8350170;28;20204;-83
2021/05/28 02:20:35;;;;;;;9.60;8.60;;;;;;;12.68;66.30;98372.72;8349573;28;20491;-83
2021/05/28 02:24:37;;;;;;;10.10;8.70;;;;;;;12.60;66.31;98354.03;8350088;28;20228;-83
2021/05/28 02:28:41;;;;;;;8.93;8.13;;;;;;;12.80;65.85;98347.91;8349732;28;20208;-83
2021/05/28 02:32:43;;;;;;;9.43;8.50;;;;;;;12.78;65.54;98341.94;8349708;28;20204;-84
2021/05/28 02:36:45;;;;;;;9.50;8.60;;;;;;;12.74;66.19;98338.66;8349591;28;20200;-84
2021/05/28 02:40:48;;;;;;;10.87;9.03;;;;;;;12.78;66.17;98365.34;8349317;28;20200;-84
2021/05/28 02:44:53;;;;;;;10.33;9.10;;;;;;;12.81;66.06;98379.03;8349706;28;20243;-84
2021/05/28 02:48:55;;;;;;;13.07;9.40;;;;;;;12.82;65.92;98372.06;8349453;28;20200;-82
2021/05/28 02:52:57;;;;;;;10.40;8.40;;;;;;;12.79;66.05;98375.63;8349330;28;20211;-82
2021/05/28 02:57:00;;;;;;;9.67;8.70;;;;;;;12.77;66.18;98377.47;8349240;28;20207;-82
2021/05/28 03:01:03;;;;;;;10.07;9.17;;;;;;;12.80;65.76;98377.34;8348836;28;20236;-82
2021/05/28 03:05:07;;;;;;;11.17;9.87;;;;;;;12.75;66.11;98374.09;8349023;28;20224;-82
2021/05/28 03:09:09;;;;;;;10.33;9.13;;;;;;;12.71;66.07;98378.59;8349156;28;20231;-82
2021/05/28 03:13:12;;;;;;;11.00;9.67;;;;;;;12.67;66.37;98386.63;8348727;28;20208;-82
2021/05/28 03:17:15;;;;;;;11.63;8.97;;;;;;;12.80;65.82;98387.72;8348880;28;20397;-81
2021/05/28 03:21:37;;;;;;;11.97;9.27;;;;;;;12.81;65.76;98398.97;8348910;28;20204;-81
2021/05/28 03:25:39;;;;;;;10.67;9.50;;;;;;;12.87;65.68;98398.66;8348674;28;20223;-83
2021/05/28 03:29:42;;;;;;;12.43;9.90;;;;;;;12.81;65.79;98406.75;8348440;28;20205;-82
2021/05/28 03:33:45;;;;;;;11.90;10.30;;;;;;;12.74;66.11;98414.00;8352895;28;20204;-82
2021/05/28 03:37:48;;;;;;;11.83;10.43;;;;;;;12.80;66.33;98407.69;8355032;28;20200;-82
2021/05/28 03:41:50;;;;;;;12.47;11.00;;;;;;;12.84;66.07;98419.63;8355002;28;20213;-82
2021/05/28 03:45:52;;;;;;;12.10;10.87;;;;;;;12.80;65.96;98424.13;8354747;28;20232;-82
2021/05/28 03:49:56;;;;;;;13.30;11.90;;;;;;;12.69;66.49;98421.16;8354668;28;20207;-81
2021/05/28 03:53:58;;;;;;;15.33;12.07;;;;;;;12.72;66.56;98423.63;8354618;28;20517;-81
2021/05/28 03:58:00;;;;;;;13.90;12.60;;;;;;;12.74;66.09;98423.53;8354656;28;20295;-83
2021/05/28 04:02:03;;;;;;;14.33;12.93;;;;;;;12.69;66.40;98427.19;8354475;28;20247;-82
2021/05/28 04:06:06;;;;;;;14.40;12.97;;;;;;;12.74;66.13;98429.59;8354272;28;20204;-83
2021/05/28 04:10:10;;;;;;;13.67;12.07;;;;;;;12.77;66.06;98419.06;8354098;28;20227;-83
2021/05/28 04:14:14;;;;;;;15.30;13.80;;;;;;;12.81;65.84;98418.03;8354064;28;20215;-83
2021/05/28 04:18:16;;;;;;;16.73;13.50;;;;;;;12.76;65.76;98406.97;8353923;28;20231;-83
2021/05/28 04:22:20;;;;;;;15.03;13.47;;;;;;;12.82;65.92;98408.47;8353892;28;20207;-83
2021/05/28 04:26:22;;;;;;;16.10;14.43;;;;;;;12.80;65.75;98402.50;8353743;28;20204;-83
2021/05/28 04:30:24;;;;;;;17.90;16.00;;;;;;;12.66;66.04;98400.50;8353591;28;20388;-83
2021/05/28 04:34:27;;;;;;;15.50;13.90;;;;;;;12.83;65.55;98413.59;8353486;28;20480;-83
2021/05/28 04:38:30;;;;;;;15.93;14.37;;;;;;;12.87;65.08;98416.88;8353385;28;20207;-83
2021/05/28 04:42:35;;;;;;;15.40;13.90;;;;;;;12.93;65.40;98414.00;8352630;28;20231;-83
2021/05/28 04:46:38;;;;;;;15.63;14.17;;;;;;;12.96;65.57;98423.41;8352941;28;20223;-83
2021/05/28 04:50:40;;;;;;;18.27;15.03;;;;;;;12.88;65.49;98419.41;8352813;28;20200;-83
2021/05/28 04:54:43;;;;;;;22.67;17.90;;;;;;;12.94;65.44;98420.03;8352931;28;20369;-82
2021/05/28 04:58:46;;;;;;;17.93;15.60;;;;;;;13.07;65.24;98431.53;8352663;28;20204;-83
2021/05/28 05:02:48;;;;;;;17.90;14.40;;;;;;;12.89;65.88;98435.84;8345625;28;20351;-82
2021/05/28 05:06:51;;;;;;;17.30;15.50;;;;;;;12.91;65.66;98434.03;8332628;28;20193;-82
2021/05/28 05:10:55;;;;;;;15.60;14.00;;;;;;;13.05;65.40;98441.19;8319238;28;20324;-83
2021/05/28 05:14:58;;;;;;;15.63;13.73;;;;;;;13.01;65.44;98437.03;8319399;28;20484;-82
2021/05/28 05:19:00;;;;;;;16.03;14.17;;;;;;;13.15;65.59;98444.19;8319357;28;20236;-82
2021/05/28 05:23:04;;;;;;;14.97;13.40;;;;;;;13.32;64.97;98454.66;8319043;28;20228;-82
2021/05/28 05:27:07;;;;;;;15.67;14.17;;;;;;;13.36;65.01;98450.16;8318944;28;20213;-86
2021/05/28 05:31:10;;;;;;;16.07;14.23;;;;;;;13.37;64.31;98455.28;8318646;28;20209;-82
2021/05/28 05:35:12;;;;;;;16.43;14.83;;;;;;;13.44;64.39;98451.50;8318557;28;20252;-81
2021/05/28 05:39:15;;;;;;;16.73;13.77;;;;;;;13.39;63.98;98447.41;8318560;28;20291;-81
2021/05/28 05:43:18;;;;;;;15.63;13.57;;;;;;;13.61;64.15;98452.41;8318504;28;20231;-82
2021/05/28 05:47:20;;;;;;;14.80;13.23;;;;;;;13.59;63.97;98462.88;8318114;28;20205;-80
2021/05/28 05:51:23;;;;;;;19.47;14.83;;;;;;;13.60;64.23;98467.19;8334044;28;20194;-80
2021/05/28 05:55:25;;;;;;;15.33;13.87;;;;;;;13.55;64.71;98463.94;8317186;28;20209;-81
2021/05/28 05:59:29;;;;;;;14.63;13.20;;;;;;;13.60;64.00;98466.34;8317879;28;20205;-81
2021/05/28 06:03:31;;;;;;;14.27;12.97;;;;;;;13.70;63.50;98475.38;8317542;28;20347;-80
2021/05/28 06:07:34;;;;;;;16.47;14.13;;;;;;;13.42;63.97;98479.34;8317899;28;20208;-79
2021/05/28 06:11:39;;;;;;;13.87;12.07;;;;;;;13.67;63.79;98483.34;8317406;28;20221;-79
2021/05/28 06:15:42;;;;;;;14.13;12.13;;;;;;;13.76;63.61;98485.47;8317715;28;20205;-79
2021/05/28 06:19:44;;;;;;;13.77;12.37;;;;;;;13.84;63.22;98491.19;8332184;28;20201;-80
2021/05/28 06:23:47;;;;;;;14.13;12.63;;;;;;;13.85;63.70;98498.06;8332865;28;20221;-79
2021/05/28 06:27:49;;;;;;;16.13;12.40;;;;;;;13.87;63.41;98495.38;8332755;28;20193;-79
2021/05/28 06:31:53;;;;;;;12.50;11.27;;;;;;;13.84;62.24;98490.31;8332530;28;20194;-79
2021/05/28 06:35:55;;;;;;;11.77;10.53;;;;;;;13.88;62.75;98492.72;8332383;28;20196;-80
2021/05/28 06:39:58;;;;;;;13.27;10.57;;;;;;;13.95;62.41;98498.44;8332360;28;20197;-79
2021/05/28 06:44:00;;;;;;;12.63;11.23;;;;;;;14.06;62.15;98498.75;8332377;28;20319;-79
2021/05/28 06:48:04;;;;;;;11.90;10.60;;;;;;;14.05;62.63;98499.69;8332323;28;20394;-80
2021/05/28 06:52:07;;;;;;;14.00;10.53;;;;;;;14.13;62.43;98509.72;8333850;28;20204;-79
2021/05/28 06:56:09;;;;;;;12.83;10.40;;;;;;;14.16;61.65;98508.72;8331936;28;20204;-80
2021/05/28 07:00:12;;;;;;;11.57;10.47;;;;;;;14.37;61.89;98512.00;8332005;28;20371;-80
2021/05/28 07:04:15;;;;;;;10.93;9.50;;;;;;;14.46;61.08;98509.75;8331731;28;20231;-81
2021/05/28 07:08:17;;;;;;;15.20;11.07;;;;;;;14.41;61.37;98510.91;8331523;28;20201;-81
2021/05/28 07:12:20;;;;;;;11.87;10.67;;;;;;;14.40;61.63;98514.44;8331679;28;20192;-82
2021/05/28 07:16:22;;;;;;;14.43;11.57;;;;;;;14.22;62.14;98514.47;8333716;28;20208;-81
2021/05/28 07:20:26;;;;;;;16.07;11.57;;;;;;;14.40;62.03;98512.69;8348781;28;20200;-81
2021/05/28 07:24:28;;;;;;;11.37;10.17;;;;;;;14.30;61.46;98505.41;8348530;28;20228;-80
2021/05/28 07:28:31;;;;;;;9.97;8.97;;;;;;;14.70;60.28;98519.00;8346610;28;20200;-81
2021/05/28 07:32:33;;;;;;;11.43;9.80;;;;;;;14.75;60.27;98530.88;8348911;28;20495;-81
2021/05/28 07:36:40;;;;;;;12.30;9.37;;;;;;;14.96;60.29;98539.34;8348809;28;20503;-82
2021/05/28 07:40:43;;;;;;;16.23;9.77;;;;;;;14.91;60.65;98537.91;8348305;28;20211;-82
2021/05/28 07:44:47;;;;;;;10.17;8.53;;;;;;;15.07;58.37;98536.16;8348314;28;20286;-82
2021/05/28 07:48:49;;;;;;;9.00;8.10;;;;;;;15.24;58.55;98535.25;8347880;28;20203;-81
2021/05/28 07:52:52;;;;;;;12.03;8.10;;;;;;;15.31;58.32;98538.38;8348430;28;20208;-82
2021/05/28 07:56:55;;;;;;;30.53;7.33;;;;;;;15.65;60.58;98534.75;8348219;28;20204;-81
2021/05/28 08:00:57;;;;;;;10.63;5.40;;;;;;;16.86;57.56;98534.72;8346686;28;20236;-81
2021/05/28 08:04:59;;;;;;;9.03;5.87;;;;;;;17.23;55.37;98524.59;8349658;28;20228;-81
2021/05/28 08:09:03;;;;;;;13.23;6.47;;;;;;;17.54;52.79;98517.41;8349370;28;20225;-81
2021/05/28 08:13:05;;;;;;;7.03;5.10;;;;;;;17.62;52.45;98520.38;8349397;28;20515;-81
2021/05/28 08:17:08;;;;;;;7.80;4.60;;;;;;;17.56;51.87;98519.00;8346538;28;20203;-82
2021/05/28 08:21:11;;;;;;;11.50;5.00;;;;;;;17.55;51.55;98522.56;8355787;28;20204;-83
2021/05/28 08:25:14;;;;;;;13.47;4.63;;;;;;;17.70;51.72;98527.75;8356351;28;20228;-82
2021/05/28 08:29:17;;;;;;;8.43;5.00;;;;;;;17.70;51.54;98533.81;8357455;28;20200;-82
2021/05/28 08:33:19;;;;;;;8.13;5.20;;;;;;;17.85;51.37;98536.44;8355220;28;20204;-82
2021/05/28 08:37:22;;;;;;;10.03;5.10;;;;;;;18.01;50.02;98536.25;8337931;28;20201;-82
2021/05/28 08:41:26;;;;;;;8.47;4.73;;;;;;;17.76;51.10;98543.06;8321325;28;20216;-83
2021/05/28 08:45:29;;;;;;;8.27;4.53;;;;;;;17.62;50.75;98535.25;8321846;28;20240;-80
2021/05/28 08:49:32;;;;;;;6.43;4.40;;;;;;;16.93;50.86;98529.97;8351274;28;20387;-81
2021/05/28 08:53:34;;;;;;;11.40;4.20;;;;;;;16.68;51.11;98539.28;8355014;28;20236;-81
2021/05/28 08:57:38;;;;;;;10.30;4.10;;;;;;;16.51;51.99;98529.81;8354434;28;20200;-84
2021/05/28 09:01:40;;;;;;;10.10;4.13;;;;;;;16.33;53.26;98530.91;8353957;28;20236;-83
2021/05/28 09:05:43;;;;;;;7.67;3.90;;;;;;;15.95;54.95;98539.19;8353280;28;20239;-83
2021/05/28 09:09:45;;;;;;;8.63;3.97;;;;;;;15.70;56.09;98535.31;8354226;28;20220;-85
2021/05/28 09:13:50;;;;;;;5.00;3.50;;;;;;;15.94;55.53;98547.97;8353758;28;20372;-85
2021/05/28 09:17:53;;;;;;;5.70;3.57;;;;;;;15.86;55.24;98543.19;8353630;28;20384;-84
2021/05/28 09:21:58;;;;;;;5.97;4.03;;;;;;;15.92;55.75;98544.59;8353376;28;20201;-84
2021/05/28 09:26:03;;;;;;;6.80;3.93;;;;;;;15.80;55.33;98535.66;8353389;28;20247;-82
2021/05/28 09:30:09;;;;;;;6.93;3.27;;;;;;;16.01;54.64;98546.66;8351996;28;20201;-82
2021/05/28 09:34:11;;;;;;;7.07;3.73;;;;;;;16.16;53.54;98540.59;8353245;28;20526;-83
2021/05/28 09:38:21;;;;;;;5.13;3.20;;;;;;;16.32;52.73;98537.91;8353501;28;20200;-82
2021/05/28 09:42:24;;;;;;;8.70;4.10;;;;;;;16.49;52.33;98533.47;8353638;28;20476;-83
2021/05/28 09:46:28;;;;;;;6.20;3.67;;;;;;;16.54;53.03;98534.84;8352986;28;20224;-83
2021/05/28 09:50:33;;;;;;;4.57;3.10;;;;;;;16.38;51.94;98539.31;8352966;28;20203;-83
2021/05/28 09:54:36;;;;;;;5.80;3.13;;;;;;;16.48;50.98;98527.38;8344786;28;20398;-84
2021/05/28 09:58:54;;;;;;;7.13;3.40;;;;;;;16.60;50.93;98536.25;8335586;28;20481;-84
2021/05/28 10:03:18;;;;;;;3.70;2.57;;;;;;;16.87;50.02;98523.34;8318560;28;20237;-85
2021/05/28 10:07:20;;;;;;;5.13;2.50;;;;;;;17.17;49.23;98524.97;8320070;28;20407;-85
2021/05/28 10:11:23;;;;;;;3.73;2.20;;;;;;;17.26;49.90;98521.78;8319854;28;20228;-83
2021/05/28 10:15:25;;;;;;;5.23;2.30;;;;;;;17.63;49.28;98522.06;8319675;28;20209;-86
2021/05/28 10:19:29;;;;;;;4.37;2.20;;;;;;;17.88;47.50;98520.50;8332965;28;20203;-83
2021/05/28 10:23:32;;;;;;;3.40;2.20;;;;;;;18.13;46.55;98525.81;8334964;28;20198;-84
2021/05/28 10:27:34;;;;;;;2.97;2.00;;;;;;;18.05;47.16;98516.75;8348496;28;20388;-84
2021/05/28 10:31:56;;;;;;;3.70;1.93;;;;;;;17.85;46.84;98511.06;8352051;28;20207;-84
2021/05/28 10:36:02;;;;;;;7.63;2.60;;;;;;;17.55;47.21;98513.84;8353302;28;20211;-85
2021/05/28 10:40:23;;;;;;;4.20;1.70;;;;;;;17.85;47.16;98516.28;8352735;28;20200;-86
2021/05/28 10:44:26;;;;;;;4.80;2.03;;;;;;;17.80;46.64;98510.50;8351160;28;20220;-86
2021/05/28 10:49:09;;;;;;;4.70;2.17;;;;;;;17.71;46.03;98503.25;8348143;28;20211;-87
2021/05/28 10:53:12;;;;;;;5.90;1.97;;;;;;;17.68;46.23;98517.34;8325406;28;20192;-87
2021/05/28 10:57:48;;;;;;;2.97;1.53;;;;;;;17.81;45.31;98513.97;8352938;28;20526;-86
2021/05/28 11:01:52;;;;;;;4.13;2.07;;;;;;;17.77;46.77;98513.31;8352023;28;20228;-86
2021/05/28 11:06:01;;;;;;;3.87;1.70;;;;;;;18.04;46.38;98512.47;8352138;28;20410;-86
2021/05/28 11:10:28;;;;;;;3.60;1.90;;;;;;;18.84;42.09;98520.22;8354242;28;20232;-85
2021/05/28 11:14:33;;;;;;;4.60;1.90;;;;;;;18.44;43.85;98509.81;8341776;28;20226;-86
2021/05/28 11:18:44;;;;;;;3.93;1.77;;;;;;;18.24;44.12;98505.88;8352123;28;20214;-84
2021/05/28 11:22:47;;;;;;;5.70;1.50;;;;;;;18.36;44.32;98508.53;8351021;28;20387;-83
2021/05/28 11:26:50;;;;;;;5.43;1.67;;;;;;;18.39;43.97;98504.88;8351227;28;20228;-84
2021/05/28 11:30:54;;;;;;;2.67;1.20;;;;;;;18.74;42.76;98497.19;8351336;28;20200;-84
2021/05/28 11:35:11;;;;;;;2.93;1.50;;;;;;;19.84;41.82;98492.94;8350354;28;20408;-84
2021/05/28 11:39:23;;;;;;;2.77;1.40;;;;;;;18.91;41.16;98490.81;8349217;28;20215;-82
2021/05/28 11:43:34;;;;;;;2.67;1.40;;;;;;;18.75;41.23;98488.41;8349624;28;20215;-82
2021/05/28 11:47:37;;;;;;;3.80;1.20;;;;;;;18.54;41.99;98489.84;8350143;28;20535;-85
2021/05/28 11:51:40;;;;;;;2.97;1.33;;;;;;;18.48;42.52;98491.13;8322425;28;20197;-84
2021/05/28 11:55:44;;;;;;;6.47;1.57;;;;;;;18.23;43.92;98480.63;8351912;28;20212;-84
2021/05/28 11:59:50;;;;;;;5.53;1.70;;;;;;;18.06;44.63;98481.75;8356471;28;20220;-82
2021/05/28 12:03:53;;;;;;;2.67;1.50;;;;;;;18.02;43.77;98477.66;8352849;28;20229;-82
2021/05/28 12:07:56;;;;;;;4.67;1.67;;;;;;;17.97;44.50;98472.72;8322720;28;20201;-82
2021/05/28 12:11:59;;;;;;;3.97;1.20;;;;;;;18.04;44.20;98475.78;8323226;28;20221;-84
2021/05/28 12:16:04;;;;;;;4.60;1.43;;;;;;;18.14;44.95;98479.47;8324243;28;20215;-83
2021/05/28 12:20:17;;;;;;;2.63;1.27;;;;;;;18.02;42.78;98475.06;8322790;28;20197;-83
2021/05/28 12:24:20;;;;;;;4.80;1.87;;;;;;;18.85;48.23;98478.13;8322702;28;20229;-83
2021/05/28 12:28:28;;;;;;;2.33;1.17;;;;;;;19.14;44.96;98483.09;8322676;28;20201;-83
2021/05/28 12:32:33;;;;;;;3.87;1.30;;;;;;;19.31;41.95;98477.47;8322643;28;20209;-82
2021/05/28 12:36:37;;;;;;;4.87;1.30;;;;;;;19.49;42.13;98477.06;8323697;28;20279;-83
2021/05/28 12:40:43;;;;;;;3.73;1.20;;;;;;;19.43;41.33;98470.47;8325285;28;20213;-82
2021/05/28 12:44:46;;;;;;;6.20;1.20;;;;;;;19.43;40.07;98480.16;8323843;28;20230;-81
2021/05/28 12:48:51;;;;;;;2.30;1.00;;;;;;;19.71;38.37;98482.44;8324727;28;20389;-82
2021/05/28 12:52:54;;;;;;;3.70;1.30;;;;;;;20.96;38.50;98470.41;8354070;28;20220;-82
2021/05/28 12:56:58;;;;;;;4.10;1.03;;;;;;;20.75;38.51;98477.34;8352889;28;20208;-82
2021/05/28 13:01:03;;;;;;;1.37;0.80;;;;;;;21.00;35.20;98463.94;8353151;28;20275;-82
2021/05/28 13:05:12;;;;;;;3.07;0.70;;;;;;;21.60;36.75;98468.84;8352725;28;20232;-82
2021/05/28 13:09:19;;;;;;;2.60;0.93;;;;;;;21.00;36.53;98461.31;8353186;28;20534;-83
2021/05/28 13:13:22;;;;;;;2.27;0.93;;;;;;;20.76;38.00;98455.34;8352545;28;20200;-83
2021/05/28 13:17:32;;;;;;;3.33;1.00;;;;;;;21.36;37.52;98455.81;8352644;28;20212;-83
2021/05/28 13:21:35;;;;;;;4.17;0.87;;;;;;;21.37;34.96;98452.25;8352403;28;20208;-83
2021/05/28 13:25:38;;;;;;;2.83;1.00;;;;;;;20.49;39.95;98465.22;8352289;28;20235;-83
2021/05/28 13:29:52;;;;;;;2.90;1.00;;;;;;;19.78;39.05;98461.84;8352200;28;20546;-83
2021/05/28 13:33:55;;;;;;;2.47;1.10;;;;;;;19.47;40.79;98466.69;8351564;28;20206;-83
2021/05/28 13:37:58;;;;;;;3.53;1.13;;;;;;;19.53;42.33;98463.63;8351763;28;20204;-83
2021/05/28 13:42:03;;;;;;;2.17;0.80;;;;;;;19.40;41.05;98467.25;8351689;28;20200;-83
2021/05/28 13:46:06;;;;;;;1.17;0.63;;;;;;;19.25;39.95;98463.97;8336674;28;20447;-83
2021/05/28 13:50:09;;;;;;;2.07;1.07;;;;;;;19.20;41.07;98460.81;8334984;28;20204;-82
2021/05/28 13:54:12;;;;;;;4.47;0.87;;;;;;;19.01;40.74;98464.75;8350964;28;20209;-83
2021/05/28 13:58:15;;;;;;;3.07;0.80;;;;;;;19.20;42.74;98458.19;8351061;28;20271;-83
2021/05/28 14:02:17;;;;;;;7.83;0.90;;;;;;;19.20;41.94;98451.16;8350946;28;20230;-83
2021/05/28 14:06:20;;;;;;;1.80;0.87;;;;;;;19.26;41.96;98453.31;8350502;28;20539;-82
2021/05/28 14:10:24;;;;;;;3.53;1.00;;;;;;;19.22;40.18;98448.41;8350283;28;20270;-83
2021/05/28 14:14:26;;;;;;;6.20;1.33;;;;;;;19.29;41.59;98442.59;8350550;28;20205;-83
2021/05/28 14:18:28;;;;;;;9.03;1.60;;;;;;;19.26;42.02;98449.88;8349937;28;20212;-83
2021/05/28 14:22:32;;;;;;;6.17;0.80;;;;;;;19.03;40.01;98460.22;8350687;28;20201;-84
2021/05/28 14:26:36;;;;;;;5.93;1.27;;;;;;;19.24;41.87;98449.97;8350498;28;20229;-84
2021/05/28 14:30:39;;;;;;;18.27;1.50;;;;;;;19.29;41.25;98447.03;8350700;28;20207;-84
2021/05/28 14:34:41;;;;;;;3.67;1.13;;;;;;;19.22;40.24;98445.78;8353571;28;20226;-83
2021/05/28 14:38:43;;;;;;;10.97;1.23;;;;;;;19.35;40.97;98441.31;8348856;28;20207;-82
2021/05/28 14:42:47;;;;;;;8.77;1.20;;;;;;;20.13;39.76;98436.50;8349277;28;20545;-82
2021/05/28 14:46:49;;;;;;;14.47;1.33;;;;;;;20.51;39.03;98433.53;8348912;28;20235;-82
2021/05/28 14:50:52;;;;;;;7.80;1.10;;;;;;;20.65;37.98;98433.31;8348960;28;20200;-82
2021/05/28 14:54:54;;;;;;;3.13;1.00;;;;;;;20.78;37.91;98429.72;8348393;28;20507;-84
2021/05/28 14:58:58;;;;;;;7.80;1.20;;;;;;;20.79;35.50;98418.22;8348599;28;20514;-84
2021/05/28 15:03:00;;;;;;;3.83;0.90;;;;;;;20.70;37.14;98404.03;8348820;28;20240;-83
2021/05/28 15:07:03;;;;;;;2.97;0.93;;;;;;;20.73;35.28;98411.66;8349083;28;20223;-83
2021/05/28 15:11:06;;;;;;;6.23;1.10;;;;;;;20.55;38.07;98413.09;8348365;28;20233;-83
2021/05/28 15:15:10;;;;;;;7.03;1.33;;;;;;;20.47;37.92;98403.16;8348333;28;20213;-83
2021/05/28 15:19:12;;;;;;;4.93;1.20;;;;;;;20.08;39.07;98403.47;8348220;28;20207;-82
2021/05/28 15:23:16;;;;;;;4.80;1.57;;;;;;;19.78;38.71;98405.81;8347996;28;20201;-83
2021/05/28 15:27:19;;;;;;;5.07;0.90;;;;;;;19.66;39.06;98405.75;8350221;28;20232;-83
2021/05/28 15:31:22;;;;;;;11.63;1.47;;;;;;;19.30;40.06;98402.25;8354837;28;20381;-83
2021/05/28 15:35:25;;;;;;;4.10;0.97;;;;;;;19.29;38.68;98403.22;8354472;28;20198;-83
2021/05/28 15:39:27;;;;;;;2.77;1.10;;;;;;;19.10;40.15;98413.41;8354478;28;20200;-83
2021/05/28 15:43:29;;;;;;;3.93;0.80;;;;;;;18.69;39.82;98411.88;8354043;28;20197;-83
2021/05/28 15:47:33;;;;;;;2.63;0.93;;;;;;;18.40;40.90;98403.44;8353838;28;20228;-86
2021/05/28 15:51:35;;;;;;;1.13;0.70;;;;;;;18.33;41.33;98406.50;8353934;28;20465;-82
2021/05/28 15:55:38;;;;;;;2.87;0.90;;;;;;;18.06;41.79;98403.97;8325502;28;20201;-82
2021/05/28 15:59:40;;;;;;;1.53;0.90;;;;;;;18.12;42.79;98411.41;8353830;28;20510;-84
2021/05/28 16:03:44;;;;;;;2.07;0.60;;;;;;;18.01;43.23;98400.84;8353814;28;20303;-83
2021/05/28 16:07:49;;;;;;;2.40;0.90;;;;;;;17.88;43.79;98400.81;8353919;28;20228;-85
2021/05/28 16:11:54;;;;;;;3.30;1.57;;;;;;;17.90;43.71;98403.34;8353486;28;20227;-84
2021/05/28 16:15:57;;;;;;;3.27;1.47;;;;;;;17.85;43.92;98402.81;8353527;28;20211;-85
2021/05/28 16:20:06;;;;;;;3.53;1.20;;;;;;;17.84;44.09;98408.94;8353536;28;20495;-83
2021/05/28 16:24:09;;;;;;;2.87;0.80;;;;;;;17.70;44.33;98402.84;8353201;28;20514;-82
2021/05/28 16:28:12;;;;;;;1.40;1.00;;;;;;;17.69;43.75;98398.56;8352733;28;20224;-82
2021/05/28 16:32:15;;;;;;;2.33;0.93;;;;;;;17.72;42.83;98392.28;8353768;28;20275;-83
2021/05/28 16:36:18;;;;;;;3.70;0.80;;;;;;;17.80;43.12;98397.88;8352585;28;20208;-82
2021/05/28 16:40:20;;;;;;;1.00;0.70;;;;;;;17.81;40.63;98389.06;8352143;28;20200;-83
2021/05/28 16:44:23;;;;;;;4.83;1.20;;;;;;;17.94;40.42;98387.31;8353017;28;20380;-82
2021/05/28 16:48:25;;;;;;;0.83;0.63;;;;;;;18.04;40.60;98394.53;8352171;28;20523;-82
2021/05/28 16:52:28;;;;;;;1.03;0.80;;;;;;;17.93;39.90;98392.66;8352646;28;20204;-82
2021/05/28 16:56:31;;;;;;;2.67;0.70;;;;;;;17.79;40.51;98388.31;8352659;28;20547;-80
2021/05/28 17:00:33;;;;;;;3.00;0.80;;;;;;;17.63;40.48;98399.00;8352384;28;20204;-80
2021/05/28 17:04:36;;;;;;;5.67;1.10;;;;;;;17.70;43.62;98389.75;8351773;28;20303;-81
2021/05/28 17:08:40;;;;;;;2.30;0.90;;;;;;;17.77;44.51;98385.78;8348546;28;20236;-81
2021/05/28 17:12:43;;;;;;;1.40;0.90;;;;;;;17.58;44.04;98387.97;8334772;28;20215;-80
2021/05/28 17:16:46;;;;;;;2.47;1.33;;;;;;;17.37;44.93;98384.97;8334755;28;20196;-81
2021/05/28 17:20:49;;;;;;;2.40;1.10;;;;;;;17.28;44.46;98393.44;8334461;28;20207;-82
2021/05/28 17:24:52;;;;;;;5.10;1.00;;;;;;;17.29;46.28;98390.72;8335086;28;20221;-82
2021/05/28 17:28:55;;;;;;;4.90;1.03;;;;;;;17.27;45.41;98390.00;8334124;28;20327;-83
2021/05/28 17:32:57;;;;;;;1.30;0.97;;;;;;;17.35;46.32;98382.47;8335895;28;20211;-83
2021/05/28 17:37:00;;;;;;;1.93;0.90;;;;;;;17.25;45.52;98396.25;8333092;28;20201;-82
2021/05/28 17:41:04;;;;;;;4.37;1.40;;;;;;;17.03;44.44;98396.78;8333478;28;20199;-80
2021/05/28 17:45:08;;;;;;;1.13;0.80;;;;;;;17.14;44.87;98399.56;8317525;28;20201;-81
2021/05/28 17:49:11;;;;;;;0.87;0.70;;;;;;;17.12;45.56;98398.81;8323874;28;20204;-82
2021/05/28 17:53:15;;;;;;;1.80;0.80;;;;;;;17.07;45.36;98400.91;8349950;28;20200;-80
2021/05/28 17:57:18;;;;;;;1.73;0.97;;;;;;;17.05;45.89;98402.78;8352380;28;20204;-82
2021/05/28 18:01:21;;;;;;;4.60;0.90;;;;;;;16.97;46.23;98403.25;8349539;28;20241;-82
2021/05/28 18:05:23;;;;;;;2.23;0.90;;;;;;;16.90;45.63;98397.56;8349638;28;20200;-81
2021/05/28 18:09:28;;;;;;;2.07;1.10;;;;;;;16.67;45.69;98391.13;8338524;28;20220;-80
2021/05/28 18:13:31;;;;;;;5.43;0.90;;;;;;;16.82;46.67;98405.06;8332553;28;20268;-82
2021/05/28 18:17:33;;;;;;;2.00;1.07;;;;;;;16.77;45.19;98401.84;8332218;28;20208;-82
2021/05/28 18:21:36;;;;;;;6.53;0.80;;;;;;;16.80;46.09;98412.13;8331995;28;20192;-81
2021/05/28 18:25:38;;;;;;;1.80;1.10;;;;;;;16.73;46.12;98411.66;8331944;28;20515;-81
2021/05/28 18:29:42;;;;;;;3.03;0.90;;;;;;;16.72;46.37;98404.78;8332078;28;20199;-83
2021/05/28 18:33:44;;;;;;;8.83;3.73;;;;;;;17.14;52.31;98413.47;8331877;28;20405;-85
2021/05/28 18:37:48;;;;;;;7.77;2.90;;;;;;;17.28;49.64;98406.53;8333222;28;20207;-87
2021/05/28 18:41:50;;;;;;;4.47;2.67;;;;;;;17.36;48.06;98406.84;8329980;28;20211;-87
2021/05/28 18:45:54;;;;;;;3.43;2.70;;;;;;;16.95;45.85;98405.13;8318977;28;20229;-85
2021/05/28 18:49:57;;;;;;;7.03;5.20;;;;;;;16.74;46.66;98408.13;8331715;28;20208;-85
2021/05/28 18:53:59;;;;;;;3.90;2.33;;;;;;;16.60;48.77;98410.75;8351913;28;20200;-85
2021/05/28 18:58:02;;;;;;;11.17;4.63;;;;;;;16.46;49.76;98418.63;8351641;28;20204;-83
2021/05/28 19:02:05;;;;;;;10.10;4.33;;;;;;;16.40;49.41;98414.59;8350479;28;20512;-83